Time;durP1;ratioP1;P1;durP2;ratioP2;P2;SDS_P1;SDS_P2;PMS_P1;PMS_P2;Temp;Humidity;BMP_temperature;BMP_pressure;BME280_temperature;BME280_humidity;BME280_pressure;Samples;Min_cycle;Max_cycle;Signal;HPM_P1;HPM_P2
2023/08/24 00:00:20;;;;;;;5.83;5.20;;;17.70;99.90;;;;;;5091472;28;20443;-64
2023/08/24 00:02:47;;;;;;;10.40;5.73;;;17.70;99.90;;;;;;5091323;28;20994;-64
2023/08/24 00:05:14;;;;;;;4.33;4.03;;;17.70;99.90;;;;;;5091051;28;20449;-64
2023/08/24 00:07:41;;;;;;;6.30;5.07;;;17.60;99.90;;;;;;5089332;28;20446;-64
2023/08/24 00:10:08;;;;;;;8.10;4.60;;;17.60;99.90;;;;;;5090878;28;20446;-64
2023/08/24 00:12:36;;;;;;;6.03;5.10;;;17.60;99.90;;;;;;5091071;28;20473;-64
2023/08/24 00:15:05;;;;;;;4.97;4.57;;;17.60;99.90;;;;;;5090937;28;20485;-64
2023/08/24 00:17:32;;;;;;;4.90;4.60;;;17.60;99.90;;;;;;5090377;28;20453;-64
2023/08/24 00:19:59;;;;;;;6.33;5.00;;;17.50;99.90;;;;;;5091033;28;20534;-63
2023/08/24 00:22:26;;;;;;;5.20;4.20;;;17.50;99.90;;;;;;5090671;28;20940;-64
2023/08/24 00:24:53;;;;;;;4.70;4.40;;;17.50;99.90;;;;;;5090795;28;20445;-64
2023/08/24 00:27:19;;;;;;;5.60;5.20;;;17.50;99.90;;;;;;5089713;28;20452;-64
2023/08/24 00:29:46;;;;;;;5.93;5.50;;;17.40;99.90;;;;;;5079442;28;20550;-64
2023/08/24 00:32:14;;;;;;;4.10;3.90;;;17.40;99.90;;;;;;5070078;28;20458;-64
2023/08/24 00:34:41;;;;;;;5.53;5.03;;;17.40;99.90;;;;;;5070294;28;20495;-64
2023/08/24 00:37:08;;;;;;;5.83;5.33;;;17.30;99.90;;;;;;5069349;28;20747;-63
2023/08/24 00:39:35;;;;;;;4.60;4.30;;;17.30;99.90;;;;;;5070073;28;20451;-64
2023/08/24 00:42:02;;;;;;;4.57;4.23;;;17.30;99.90;;;;;;5070279;28;20461;-64
2023/08/24 00:44:29;;;;;;;5.93;5.43;;;17.30;99.90;;;;;;5070286;28;20548;-64
2023/08/24 00:46:56;;;;;;;5.83;4.37;;;17.20;99.90;;;;;;5069186;28;20537;-65
2023/08/24 00:49:24;;;;;;;4.03;3.83;;;17.30;99.90;;;;;;5069635;28;20457;-64
2023/08/24 00:51:51;;;;;;;5.33;4.83;;;17.20;99.90;;;;;;5069162;28;20973;-64
2023/08/24 00:54:19;;;;;;;6.03;5.63;;;17.20;99.90;;;;;;5069653;28;20495;-64
2023/08/24 00:56:46;;;;;;;4.50;3.80;;;17.20;99.90;;;;;;5069265;28;20533;-64
2023/08/24 00:59:12;;;;;;;5.73;4.20;;;17.10;99.90;;;;;;5070039;28;20477;-64
2023/08/24 01:01:42;;;;;;;4.27;3.97;;;17.10;99.90;;;;;;5069997;28;20761;-64
2023/08/24 01:04:10;;;;;;;4.67;4.23;;;17.10;99.90;;;;;;5069699;28;20557;-64
2023/08/24 01:06:39;;;;;;;4.97;4.57;;;17.10;99.90;;;;;;5067627;28;20545;-64
2023/08/24 01:09:07;;;;;;;5.47;5.03;;;17.00;99.90;;;;;;5069703;28;20837;-64
2023/08/24 01:11:42;;;;;;;4.03;3.73;;;17.00;99.90;;;;;;5069700;28;20454;-64
2023/08/24 01:14:23;;;;;;;6.00;5.50;;;17.00;99.90;;;;;;5069326;28;21049;-64
2023/08/24 01:16:53;;;;;;;4.90;4.63;;;17.00;99.90;;;;;;5068715;28;20981;-64
2023/08/24 01:19:35;;;;;;;5.33;4.83;;;16.90;99.90;;;;;;5069449;28;20458;-64
2023/08/24 01:22:08;;;;;;;4.50;4.20;;;16.90;99.90;;;;;;5069301;28;20450;-64
2023/08/24 01:24:39;;;;;;;4.20;3.90;;;16.90;99.90;;;;;;5068988;28;20451;-64
2023/08/24 01:27:09;;;;;;;4.90;4.50;;;16.90;99.90;;;;;;5068620;28;20544;-63
2023/08/24 01:29:38;;;;;;;5.27;4.87;;;16.90;99.90;;;;;;5069429;28;20823;-65
2023/08/24 01:32:05;;;;;;;4.80;4.40;;;16.80;99.90;;;;;;5069102;28;20464;-64
2023/08/24 01:34:32;;;;;;;4.10;3.90;;;16.80;99.90;;;;;;5068870;28;20504;-64
2023/08/24 01:36:59;;;;;;;5.40;4.90;;;16.80;99.90;;;;;;5068105;28;20512;-64
2023/08/24 01:39:31;;;;;;;6.67;6.07;;;16.70;99.90;;;;;;5068999;28;20533;-63
2023/08/24 01:42:03;;;;;;;5.23;4.73;;;16.70;99.90;;;;;;5069174;28;20951;-65
2023/08/24 01:44:36;;;;;;;5.00;4.27;;;16.70;99.90;;;;;;5068874;28;20903;-64
2023/08/24 01:47:05;;;;;;;4.87;4.47;;;16.70;99.90;;;;;;5067912;28;21002;-64
2023/08/24 01:49:33;;;;;;;5.10;4.80;;;16.70;99.90;;;;;;5068491;28;20450;-64
2023/08/24 01:52:01;;;;;;;4.80;4.50;;;16.70;99.90;;;;;;5068966;28;20453;-64
2023/08/24 01:54:29;;;;;;;4.30;4.00;;;16.70;99.90;;;;;;5068927;28;20586;-64
2023/08/24 01:56:55;;;;;;;4.47;4.13;;;16.70;99.90;;;;;;5067826;28;20450;-64
2023/08/24 01:59:21;;;;;;;5.30;4.90;;;16.70;99.90;;;;;;5068485;28;20453;-64
2023/08/24 02:01:49;;;;;;;5.33;4.93;;;16.60;99.90;;;;;;5068358;28;20835;-64
2023/08/24 02:04:16;;;;;;;5.70;5.30;;;16.60;99.90;;;;;;5068198;28;20550;-63
2023/08/24 02:06:43;;;;;;;4.83;4.47;;;16.60;99.90;;;;;;5066202;28;20450;-64
2023/08/24 02:09:10;;;;;;;4.60;4.30;;;16.60;99.90;;;;;;5068631;28;20455;-64
2023/08/24 02:11:37;;;;;;;5.37;4.97;;;16.60;99.90;;;;;;5068644;28;20557;-64
2023/08/24 02:14:03;;;;;;;4.53;4.13;;;16.50;99.90;;;;;;5068497;28;20501;-64
2023/08/24 02:16:30;;;;;;;4.50;4.03;;;16.50;99.90;;;;;;5068108;28;21065;-64
2023/08/24 02:18:59;;;;;;;6.33;4.70;;;16.50;99.90;;;;;;5068343;28;20454;-64
2023/08/24 02:21:25;;;;;;;3.80;3.50;;;16.50;99.90;;;;;;5068424;28;20476;-64
2023/08/24 02:23:52;;;;;;;5.70;5.20;;;16.50;99.90;;;;;;5068323;28;20470;-64
2023/08/24 02:26:20;;;;;;;4.47;4.27;;;16.50;99.90;;;;;;5067457;28;20449;-64
2023/08/24 02:28:47;;;;;;;5.00;4.50;;;16.40;99.90;;;;;;5067948;28;20455;-64
2023/08/24 02:31:14;;;;;;;5.00;4.60;;;16.40;99.90;;;;;;5068118;28;20464;-64
2023/08/24 02:33:40;;;;;;;4.87;4.37;;;16.40;99.90;;;;;;5068141;28;20561;-64
2023/08/24 02:36:09;;;;;;;4.40;4.03;;;16.40;99.90;;;;;;5067169;28;20449;-63
2023/08/24 02:38:35;;;;;;;4.80;4.50;;;16.40;99.90;;;;;;5068201;28;20475;-63
2023/08/24 02:41:04;;;;;;;4.40;4.10;;;16.40;99.90;;;;;;5068322;28;20452;-64
2023/08/24 02:43:31;;;;;;;4.40;4.20;;;16.30;99.90;;;;;;5067937;28;20560;-64
2023/08/24 02:46:03;;;;;;;8.23;5.03;;;16.30;99.90;;;;;;5067259;28;20449;-65
2023/08/24 02:48:30;;;;;;;9.87;5.03;;;16.30;99.90;;;;;;5067744;28;20457;-64
2023/08/24 02:50:58;;;;;;;5.07;4.67;;;16.30;99.90;;;;;;5067727;28;21023;-64
2023/08/24 02:53:27;;;;;;;5.30;4.90;;;16.30;99.90;;;;;;5067825;28;20557;-64
2023/08/24 02:55:55;;;;;;;5.53;5.23;;;16.30;99.90;;;;;;5068503;28;20498;-64
2023/08/24 02:58:22;;;;;;;5.97;4.80;;;16.20;99.90;;;;;;5084883;28;20531;-64
2023/08/24 03:00:49;;;;;;;4.73;4.43;;;16.30;99.90;;;;;;5084750;28;20446;-64
2023/08/24 03:03:16;;;;;;;7.10;5.60;;;16.20;99.90;;;;;;5084288;28;20476;-64
2023/08/24 03:05:54;;;;;;;7.00;6.40;;;16.20;99.90;;;;;;5068382;28;20533;-63
2023/08/24 03:08:20;;;;;;;5.73;5.33;;;16.20;99.90;;;;;;5067575;28;21252;-64
2023/08/24 03:10:49;;;;;;;5.87;5.43;;;16.20;99.90;;;;;;5067822;28;20441;-64
2023/08/24 03:13:15;;;;;;;6.07;5.67;;;16.20;99.90;;;;;;5068572;28;20583;-64
2023/08/24 03:15:42;;;;;;;5.50;5.20;;;16.20;99.90;;;;;;5081137;28;20488;-64
2023/08/24 03:18:11;;;;;;;6.60;6.20;;;16.20;99.90;;;;;;5085148;28;20449;-64
2023/08/24 03:20:37;;;;;;;5.70;5.10;;;16.20;99.90;;;;;;5071625;28;20450;-63
2023/08/24 03:23:04;;;;;;;6.03;5.67;;;16.10;99.90;;;;;;5068143;28;20485;-63
2023/08/24 03:25:36;;;;;;;7.17;6.60;;;16.10;99.90;;;;;;5071746;28;20525;-64
2023/08/24 03:28:05;;;;;;;6.90;5.90;;;16.10;99.90;;;;;;5070621;28;20464;-64
2023/08/24 03:30:32;;;;;;;6.70;6.00;;;16.10;99.90;;;;;;5071460;28;20896;-64
2023/08/24 03:32:59;;;;;;;6.03;5.53;;;16.10;99.90;;;;;;5071315;28;20464;-64
2023/08/24 03:35:26;;;;;;;6.63;6.03;;;16.10;99.90;;;;;;5071382;28;20488;-63
2023/08/24 03:37:53;;;;;;;5.77;5.43;;;16.10;99.90;;;;;;5070459;28;20450;-63
2023/08/24 03:40:20;;;;;;;6.60;5.90;;;16.10;99.90;;;;;;5071424;28;20448;-64
2023/08/24 03:42:47;;;;;;;5.67;5.27;;;16.10;99.90;;;;;;5085929;28;20476;-64
2023/08/24 03:45:15;;;;;;;6.60;6.00;;;16.10;99.90;;;;;;5091245;28;20501;-64
2023/08/24 03:47:42;;;;;;;6.60;6.10;;;16.10;99.90;;;;;;5090274;28;20452;-63
2023/08/24 03:50:09;;;;;;;5.63;5.23;;;16.10;99.90;;;;;;5091284;28;20533;-64
2023/08/24 03:52:39;;;;;;;6.63;6.13;;;16.10;99.90;;;;;;5091361;28;20581;-64
2023/08/24 03:55:07;;;;;;;5.60;5.00;;;16.10;99.90;;;;;;5091352;28;20499;-64
2023/08/24 03:57:34;;;;;;;5.80;5.50;;;16.10;99.90;;;;;;5090243;28;20463;-64
2023/08/24 04:00:00;;;;;;;5.93;5.53;;;16.10;99.90;;;;;;5090850;28;21017;-64
2023/08/24 04:02:29;;;;;;;6.73;6.30;;;16.10;99.90;;;;;;5090740;28;20467;-64
2023/08/24 04:04:56;;;;;;;6.40;5.90;;;16.10;99.90;;;;;;5090992;28;20548;-63
2023/08/24 04:07:22;;;;;;;6.50;6.00;;;16.10;99.90;;;;;;5088378;28;20455;-64
2023/08/24 04:09:49;;;;;;;4.80;4.50;;;16.10;99.90;;;;;;5090968;28;20455;-64
2023/08/24 04:12:16;;;;;;;5.97;5.40;;;16.10;99.90;;;;;;5090921;28;20444;-64
2023/08/24 04:14:43;;;;;;;5.63;5.13;;;16.10;99.90;;;;;;5090461;28;20488;-63
2023/08/24 04:17:10;;;;;;;6.50;5.80;;;16.00;99.90;;;;;;5090163;28;20456;-64
2023/08/24 04:19:40;;;;;;;7.27;6.77;;;16.00;99.90;;;;;;5090812;28;20453;-64
2023/08/24 04:22:07;;;;;;;6.83;6.13;;;16.00;99.90;;;;;;5090540;28;20452;-63
2023/08/24 04:24:33;;;;;;;6.67;6.27;;;16.10;99.90;;;;;;5089623;28;20550;-64
2023/08/24 04:27:00;;;;;;;6.53;5.93;;;16.10;99.90;;;;;;5089230;28;20453;-64
2023/08/24 04:29:27;;;;;;;7.20;6.60;;;16.10;99.90;;;;;;5090790;28;20445;-64
2023/08/24 04:31:54;;;;;;;6.40;6.00;;;16.10;99.90;;;;;;5090251;28;20464;-64
2023/08/24 04:34:21;;;;;;;6.87;6.40;;;16.10;99.90;;;;;;5090311;28;20475;-63
2023/08/24 04:36:49;;;;;;;5.83;5.50;;;16.10;99.90;;;;;;5089607;28;20450;-64
2023/08/24 04:39:16;;;;;;;5.37;5.07;;;16.10;99.90;;;;;;5090315;28;20460;-64
2023/08/24 04:41:43;;;;;;;5.40;5.00;;;16.20;99.90;;;;;;5090502;28;20454;-63
2023/08/24 04:44:10;;;;;;;5.67;5.23;;;16.20;99.90;;;;;;5090237;28;21020;-64
2023/08/24 04:46:37;;;;;;;6.20;5.60;;;16.30;99.90;;;;;;5089382;28;20452;-63
2023/08/24 04:49:04;;;;;;;5.67;5.17;;;16.30;99.90;;;;;;5090204;28;20423;-64
2023/08/24 04:51:31;;;;;;;6.53;6.03;;;16.30;99.90;;;;;;5089939;28;20447;-64
2023/08/24 04:53:59;;;;;;;5.33;4.83;;;16.40;99.90;;;;;;5090058;28;20555;-64
2023/08/24 04:56:26;;;;;;;5.10;4.70;;;16.40;99.90;;;;;;5089238;28;20493;-64
2023/08/24 04:58:56;;;;;;;5.47;5.07;;;16.40;99.90;;;;;;5089990;28;20448;-64
2023/08/24 05:01:24;;;;;;;5.20;4.80;;;16.50;99.90;;;;;;5089827;28;20812;-64
2023/08/24 05:03:51;;;;;;;5.90;5.40;;;16.50;99.90;;;;;;5089801;28;20484;-64
2023/08/24 05:06:18;;;;;;;5.97;5.47;;;16.60;99.90;;;;;;5087149;28;20450;-64
2023/08/24 05:08:45;;;;;;;5.50;5.20;;;16.60;99.90;;;;;;5089556;28;20452;-64
2023/08/24 05:11:15;;;;;;;5.90;5.50;;;16.70;99.90;;;;;;5089486;28;20449;-64
2023/08/24 05:13:41;;;;;;;5.67;5.20;;;16.70;99.90;;;;;;5089475;28;20563;-64
2023/08/24 05:16:08;;;;;;;5.13;4.83;;;16.80;99.90;;;;;;5088629;28;21073;-63
2023/08/24 05:18:36;;;;;;;5.80;5.40;;;16.80;99.90;;;;;;5089620;28;20449;-64
2023/08/24 05:21:03;;;;;;;5.23;4.93;;;16.80;99.90;;;;;;5089319;28;20964;-64
2023/08/24 05:23:30;;;;;;;10.07;5.60;;;16.80;99.90;;;;;;5089526;28;20889;-64
2023/08/24 05:25:57;;;;;;;5.90;5.40;;;16.90;99.90;;;;;;5088631;28;20488;-63
2023/08/24 05:28:26;;;;;;;5.60;5.10;;;16.90;99.90;;;;;;5089268;28;20456;-64
2023/08/24 05:30:53;;;;;;;6.47;5.83;;;17.00;99.90;;;;;;5089053;28;20475;-64
2023/08/24 05:33:21;;;;;;;5.80;5.23;;;17.10;99.90;;;;;;5089050;28;21084;-64
2023/08/24 05:35:48;;;;;;;5.67;5.27;;;17.20;99.90;;;;;;5088508;28;20484;-64
2023/08/24 05:38:15;;;;;;;6.27;5.87;;;17.30;99.90;;;;;;5088498;28;20537;-64
2023/08/24 05:40:43;;;;;;;5.90;5.40;;;17.30;99.90;;;;;;5088898;28;20814;-64
2023/08/24 05:43:10;;;;;;;8.30;5.60;;;17.40;99.90;;;;;;5088691;28;20477;-64
2023/08/24 05:45:39;;;;;;;6.07;5.67;;;17.50;99.90;;;;;;5088806;28;20446;-64
2023/08/24 05:48:07;;;;;;;6.13;5.73;;;17.50;99.90;;;;;;5088561;28;20891;-64
2023/08/24 05:50:34;;;;;;;5.63;5.07;;;17.60;99.90;;;;;;5089038;28;20536;-63
2023/08/24 05:53:01;;;;;;;5.37;5.03;;;17.70;99.90;;;;;;5089233;28;20473;-64
2023/08/24 05:55:28;;;;;;;5.60;5.20;;;17.80;99.90;;;;;;5089012;28;20486;-64
2023/08/24 05:57:55;;;;;;;6.03;5.53;;;17.90;99.90;;;;;;5088689;28;20480;-64
2023/08/24 06:00:22;;;;;;;5.93;5.53;;;18.00;99.90;;;;;;5088681;28;20540;-64
2023/08/24 06:02:50;;;;;;;6.07;5.57;;;18.10;99.90;;;;;;5089035;28;20478;-64
2023/08/24 06:05:18;;;;;;;6.53;5.93;;;18.20;99.90;;;;;;5088936;28;20534;-64
2023/08/24 06:07:45;;;;;;;7.77;7.07;;;18.30;99.90;;;;;;5086558;28;20499;-64
2023/08/24 06:10:12;;;;;;;5.93;5.33;;;18.40;99.90;;;;;;5088659;28;20495;-64
2023/08/24 06:12:39;;;;;;;7.13;6.20;;;18.50;99.90;;;;;;5088872;28;20473;-64
2023/08/24 06:15:09;;;;;;;5.90;5.40;;;18.60;99.90;;;;;;5088770;28;20529;-64
2023/08/24 06:17:36;;;;;;;7.37;5.77;;;18.70;99.90;;;;;;5088169;28;20457;-64
2023/08/24 06:20:05;;;;;;;7.10;6.40;;;18.80;99.90;;;;;;5088858;28;20450;-64
2023/08/24 06:22:32;;;;;;;6.83;6.27;;;18.80;99.90;;;;;;5088594;28;20473;-65
2023/08/24 06:25:00;;;;;;;9.40;6.53;;;18.90;99.90;;;;;;5088280;28;20446;-64
2023/08/24 06:27:27;;;;;;;6.80;6.00;;;19.00;99.90;;;;;;5087594;28;20465;-64
2023/08/24 06:29:53;;;;;;;5.10;4.80;;;19.00;99.90;;;;;;5087990;28;20447;-64
2023/08/24 06:32:20;;;;;;;6.17;5.60;;;19.10;99.90;;;;;;5087472;28;20465;-64
2023/08/24 06:34:47;;;;;;;5.80;5.40;;;19.10;99.90;;;;;;5087734;28;20501;-64
2023/08/24 06:37:15;;;;;;;6.37;5.80;;;19.20;99.90;;;;;;5087179;28;20450;-64
2023/08/24 06:39:42;;;;;;;6.77;6.27;;;19.20;99.90;;;;;;5086600;28;20450;-65
2023/08/24 06:42:09;;;;;;;5.80;5.40;;;19.30;99.90;;;;;;5087446;28;20825;-64
2023/08/24 06:44:36;;;;;;;5.90;5.50;;;19.30;99.90;;;;;;5088025;28;20532;-64
2023/08/24 06:47:03;;;;;;;6.80;6.23;;;19.40;99.90;;;;;;5087288;28;20442;-64
2023/08/24 06:49:30;;;;;;;7.27;6.70;;;19.50;99.90;;;;;;5090351;28;20450;-64
2023/08/24 06:51:57;;;;;;;6.67;5.93;;;19.60;99.90;;;;;;5091511;28;20981;-64
2023/08/24 06:54:25;;;;;;;7.30;6.60;;;19.60;99.90;;;;;;5091483;28;20468;-64
2023/08/24 06:56:52;;;;;;;7.70;7.20;;;19.70;99.90;;;;;;5090655;28;20490;-64
2023/08/24 06:59:18;;;;;;;7.07;6.57;;;19.80;99.90;;;;;;5091590;28;20455;-65
2023/08/24 07:01:47;;;;;;;6.47;5.97;;;20.00;99.90;;;;;;5091688;28;20540;-64
2023/08/24 07:04:13;;;;;;;7.60;7.00;;;20.20;99.90;;;;;;5091541;28;20553;-64
2023/08/24 07:06:42;;;;;;;8.30;5.40;;;20.40;99.90;;;;;;5090602;28;20537;-64
2023/08/24 07:09:09;;;;;;;5.80;5.40;;;20.50;99.90;;;;;;5091527;28;20459;-64
2023/08/24 07:11:37;;;;;;;6.80;6.27;;;20.70;99.90;;;;;;5091064;28;20531;-65
2023/08/24 07:14:04;;;;;;;6.50;5.90;;;20.80;99.90;;;;;;5089523;28;20548;-65
2023/08/24 07:16:31;;;;;;;7.13;6.67;;;21.10;99.90;;;;;;5089993;28;20482;-65
2023/08/24 07:18:58;;;;;;;6.67;6.00;;;21.30;99.90;;;;;;5090883;28;20457;-65
2023/08/24 07:21:25;;;;;;;5.97;5.67;;;21.50;99.90;;;;;;5090978;28;20887;-65
2023/08/24 07:23:52;;;;;;;6.33;5.80;;;21.60;99.90;;;;;;5090575;28;20464;-65
2023/08/24 07:26:19;;;;;;;6.77;6.07;;;21.80;99.90;;;;;;5090126;28;20478;-64
2023/08/24 07:28:47;;;;;;;6.23;5.83;;;21.80;99.90;;;;;;5090723;28;20448;-65
2023/08/24 07:31:14;;;;;;;7.30;6.60;;;21.90;99.90;;;;;;5051980;28;1119781;-64
2023/08/24 07:33:43;;;;;;;5.80;5.30;;;22.00;99.90;;;;;;5091941;28;20503;-64
2023/08/24 07:36:10;;;;;;;7.30;6.70;;;22.20;99.90;;;;;;5090976;28;20524;-65
2023/08/24 07:38:37;;;;;;;7.83;6.07;;;22.20;99.90;;;;;;5091805;28;20453;-65
2023/08/24 07:41:06;;;;;;;6.97;6.30;;;22.30;99.90;;;;;;5091930;28;20951;-64
2023/08/24 07:43:33;;;;;;;7.33;6.50;;;22.30;99.90;;;;;;5091876;28;20511;-64
2023/08/24 07:46:02;;;;;;;6.70;6.10;;;22.30;99.90;;;;;;5091054;28;20457;-64
2023/08/24 07:48:28;;;;;;;6.60;5.97;;;22.30;99.90;;;;;;5091484;28;20832;-65
2023/08/24 07:50:56;;;;;;;7.43;6.70;;;22.40;99.90;;;;;;5091633;28;20450;-64
2023/08/24 07:53:23;;;;;;;8.27;6.03;;;22.40;99.90;;;;;;5089905;28;21048;-64
2023/08/24 07:55:50;;;;;;;7.60;5.63;;;22.50;99.90;;;;;;5090752;28;20572;-64
2023/08/24 07:58:17;;;;;;;5.93;5.63;;;22.50;99.90;;;;;;5088539;28;20454;-64
2023/08/24 08:00:44;;;;;;;9.30;5.77;;;22.70;99.90;;;;;;5090751;28;20447;-64
2023/08/24 08:03:12;;;;;;;6.00;5.50;;;22.80;99.90;;;;;;5090563;28;20585;-64
2023/08/24 08:05:39;;;;;;;6.37;5.97;;;23.00;99.90;;;;;;5090590;28;20449;-64
2023/08/24 08:08:06;;;;;;;7.23;6.63;;;23.00;99.90;;;;;;5088136;28;21007;-64
2023/08/24 08:10:33;;;;;;;6.80;6.30;;;23.10;99.90;;;;;;5090673;28;20446;-65
2023/08/24 08:12:59;;;;;;;6.80;6.20;;;23.10;99.90;;;;;;5086392;28;20491;-64
2023/08/24 08:15:26;;;;;;;6.77;6.10;;;23.10;99.90;;;;;;5086785;28;20450;-65
2023/08/24 08:17:53;;;;;;;6.10;5.70;;;23.10;99.90;;;;;;5080899;28;20546;-65
2023/08/24 08:20:21;;;;;;;7.10;6.50;;;23.20;99.90;;;;;;5089356;28;20469;-65
2023/08/24 08:22:48;;;;;;;7.30;6.70;;;23.20;99.90;;;;;;5072769;28;20489;-64
2023/08/24 08:25:17;;;;;;;6.40;6.00;;;23.20;99.90;;;;;;5086894;28;20481;-65
2023/08/24 08:27:44;;;;;;;6.83;6.30;;;23.20;99.90;;;;;;5089396;28;20450;-64
2023/08/24 08:30:12;;;;;;;7.00;6.53;;;23.30;99.90;;;;;;5087251;28;20461;-65
2023/08/24 08:32:39;;;;;;;7.17;6.77;;;23.50;99.90;;;;;;5089101;28;20588;-66
2023/08/24 08:35:07;;;;;;;8.83;7.03;;;23.70;99.90;;;;;;5083198;28;20455;-66
2023/08/24 08:37:36;;;;;;;6.60;6.10;;;24.10;99.90;;;;;;5088351;28;20570;-66
2023/08/24 08:40:05;;;;;;;6.83;6.33;;;24.30;99.90;;;;;;5088167;28;20451;-65
2023/08/24 08:42:33;;;;;;;6.37;5.87;;;24.60;99.90;;;;;;5088848;28;20475;-65
2023/08/24 08:45:02;;;;;;;6.47;6.07;;;24.70;99.90;;;;;;5088589;28;21139;-64
2023/08/24 08:47:29;;;;;;;7.00;6.40;;;24.80;99.90;;;;;;5087605;28;20820;-65
2023/08/24 08:49:56;;;;;;;6.87;6.27;;;24.90;99.90;;;;;;5082532;28;20811;-64
2023/08/24 08:52:25;;;;;;;6.30;5.80;;;24.90;99.90;;;;;;5084499;28;20456;-65
2023/08/24 08:54:53;;;;;;;6.90;6.40;;;25.00;99.90;;;;;;5088741;28;21336;-65
2023/08/24 08:57:21;;;;;;;6.73;6.23;;;25.10;99.90;;;;;;5087458;28;20498;-66
2023/08/24 08:59:49;;;;;;;12.33;6.60;;;25.20;99.90;;;;;;5087524;28;20457;-65
2023/08/24 09:02:20;;;;;;;7.57;6.97;;;25.40;99.90;;;;;;5088344;28;20469;-66
2023/08/24 09:04:49;;;;;;;6.37;5.57;;;25.50;99.90;;;;;;5084760;28;20476;-65
2023/08/24 09:07:16;;;;;;;6.47;6.00;;;25.70;99.90;;;;;;5081361;28;20456;-65
2023/08/24 09:09:44;;;;;;;6.63;5.80;;;25.90;99.90;;;;;;5087705;28;20466;-65
2023/08/24 09:12:12;;;;;;;6.20;5.80;;;26.10;99.90;;;;;;5087642;28;20541;-65
2023/08/24 09:14:39;;;;;;;6.33;5.80;;;26.20;99.90;;;;;;5076925;28;20450;-65
2023/08/24 09:17:06;;;;;;;7.83;6.20;;;26.30;99.20;;;;;;5082349;28;20488;-66
2023/08/24 09:19:35;;;;;;;6.13;5.50;;;26.40;98.60;;;;;;5069066;28;20539;-65
2023/08/24 09:22:02;;;;;;;6.30;5.43;;;26.60;98.30;;;;;;5081238;28;20451;-65
2023/08/24 09:24:33;;;;;;;5.33;4.93;;;26.60;98.50;;;;;;5080594;28;20551;-65
2023/08/24 09:27:00;;;;;;;7.63;5.87;;;26.70;98.40;;;;;;5067618;28;20953;-65
2023/08/24 09:29:37;;;;;;;7.47;6.20;;;26.70;98.60;;;;;;5069002;28;20538;-66
2023/08/24 09:32:04;;;;;;;6.00;5.60;;;26.80;97.50;;;;;;5071253;28;20450;-66
2023/08/24 09:34:31;;;;;;;5.97;5.57;;;26.80;97.50;;;;;;5087702;28;20506;-66
2023/08/24 09:36:58;;;;;;;6.10;5.60;;;26.80;97.80;;;;;;5066566;28;20493;-66
2023/08/24 09:39:25;;;;;;;5.80;5.40;;;26.90;97.00;;;;;;5067680;28;20449;-66
2023/08/24 09:41:52;;;;;;;8.80;5.40;;;27.00;96.80;;;;;;5102347;28;20968;-66
2023/08/24 09:44:19;;;;;;;7.97;6.27;;;27.10;97.30;;;;;;5108462;28;20821;-66
2023/08/24 09:46:47;;;;;;;5.90;5.40;;;27.30;97.20;;;;;;5107008;28;21132;-66
2023/08/24 09:49:15;;;;;;;5.80;5.50;;;27.50;97.20;;;;;;5108287;28;20956;-66
2023/08/24 09:51:43;;;;;;;6.57;6.03;;;27.50;96.40;;;;;;5108427;28;21087;-65
2023/08/24 09:54:13;;;;;;;7.20;5.90;;;27.50;95.60;;;;;;5108431;28;20473;-65
2023/08/24 09:56:41;;;;;;;6.90;5.60;;;27.50;96.40;;;;;;5091245;28;20580;-65
2023/08/24 09:59:14;;;;;;;5.63;5.13;;;27.60;97.10;;;;;;5074129;28;20814;-65
2023/08/24 10:01:44;;;;;;;5.50;5.10;;;27.70;94.90;;;;;;5086010;28;20821;-65
2023/08/24 10:04:13;;;;;;;4.67;4.37;;;27.90;94.50;;;;;;5083185;28;21057;-65
2023/08/24 10:06:40;;;;;;;4.87;4.53;;;28.00;94.90;;;;;;5067666;28;20472;-66
2023/08/24 10:09:09;;;;;;;5.60;5.20;;;28.10;94.40;;;;;;5067908;28;20473;-65
2023/08/24 10:11:43;;;;;;;4.73;4.37;;;28.30;94.00;;;;;;5067921;28;20496;-65
2023/08/24 10:14:16;;;;;;;4.67;4.37;;;28.50;92.50;;;;;;5067890;28;20471;-65
2023/08/24 10:16:45;;;;;;;5.60;5.20;;;28.60;92.70;;;;;;5083739;28;20490;-65
2023/08/24 10:19:14;;;;;;;5.77;5.40;;;28.60;93.30;;;;;;5073457;28;21007;-65
2023/08/24 10:21:43;;;;;;;5.23;4.33;;;28.60;92.40;;;;;;5067988;28;20547;-66
2023/08/24 10:24:10;;;;;;;6.83;5.57;;;28.60;91.60;;;;;;5067784;28;20557;-66
2023/08/24 10:26:40;;;;;;;4.10;3.80;;;28.80;92.70;;;;;;5066815;28;20451;-66
2023/08/24 10:29:07;;;;;;;5.13;4.13;;;28.80;90.90;;;;;;5067807;28;20532;-65
2023/08/24 10:31:35;;;;;;;4.53;4.07;;;28.80;90.20;;;;;;5067733;28;20561;-66
2023/08/24 10:34:03;;;;;;;4.57;4.17;;;28.90;90.10;;;;;;5067554;28;20474;-66
2023/08/24 10:36:33;;;;;;;5.53;5.00;;;28.90;89.70;;;;;;5066700;28;20487;-66
2023/08/24 10:39:05;;;;;;;4.13;3.73;;;29.00;90.20;;;;;;5067483;28;20451;-65
2023/08/24 10:41:47;;;;;;;5.43;4.93;;;29.10;87.50;;;;;;5081653;28;20451;-65
2023/08/24 10:44:22;;;;;;;6.30;3.93;;;29.10;89.90;;;;;;5072980;28;20546;-66
2023/08/24 10:47:07;;;;;;;5.30;4.60;;;29.20;89.70;;;;;;5066601;28;20450;-65
2023/08/24 10:49:34;;;;;;;7.00;3.70;;;29.30;90.00;;;;;;5067508;28;21019;-66
2023/08/24 10:52:21;;;;;;;8.67;4.40;;;29.40;90.50;;;;;;5067489;28;20444;-65
2023/08/24 10:54:49;;;;;;;7.33;4.10;;;29.50;85.40;;;;;;5067576;28;20988;-66
2023/08/24 10:57:20;;;;;;;3.90;3.53;;;29.60;84.70;;;;;;5066444;28;20491;-66
2023/08/24 10:59:57;;;;;;;3.70;3.50;;;29.60;85.80;;;;;;5067501;28;20540;-65
2023/08/24 11:02:24;;;;;;;3.73;3.47;;;29.60;79.80;;;;;;5067250;28;20534;-66
2023/08/24 11:05:08;;;;;;;3.30;3.10;;;29.60;84.10;;;;;;5067273;28;20884;-66
2023/08/24 11:07:49;;;;;;;4.70;4.40;;;29.70;84.80;;;;;;5066707;28;20458;-66
2023/08/24 11:10:17;;;;;;;4.93;4.20;;;29.80;83.90;;;;;;5067196;28;20918;-66
2023/08/24 11:13:08;;;;;;;3.83;3.63;;;29.90;83.70;;;;;;5066822;28;20478;-66
2023/08/24 11:15:38;;;;;;;4.63;3.90;;;30.10;85.70;;;;;;5061704;28;20876;-65
2023/08/24 11:18:26;;;;;;;4.17;3.97;;;30.20;79.20;;;;;;5066235;28;20887;-66
2023/08/24 11:20:54;;;;;;;4.67;4.37;;;30.30;80.50;;;;;;5067229;28;20491;-66
2023/08/24 11:23:24;;;;;;;4.17;3.80;;;30.30;82.10;;;;;;5067179;28;20556;-66
2023/08/24 11:25:54;;;;;;;4.80;4.50;;;30.40;82.30;;;;;;5066122;28;20458;-65
2023/08/24 11:28:22;;;;;;;6.70;5.37;;;30.40;79.70;;;;;;5066894;28;20449;-66
2023/08/24 11:30:50;;;;;;;5.03;4.63;;;30.40;79.90;;;;;;5081881;28;20461;-65
2023/08/24 11:33:17;;;;;;;5.70;4.30;;;30.40;79.70;;;;;;5072171;28;20472;-66
2023/08/24 11:35:45;;;;;;;5.97;5.40;;;30.40;80.60;;;;;;5069659;28;20454;-66
2023/08/24 11:38:12;;;;;;;4.80;4.40;;;30.50;82.00;;;;;;5073872;28;21033;-66
2023/08/24 11:40:40;;;;;;;6.40;4.60;;;30.50;79.70;;;;;;5089820;28;20540;-66
2023/08/24 11:43:07;;;;;;;5.00;4.70;;;30.60;78.20;;;;;;5090769;28;20459;-66
2023/08/24 11:45:36;;;;;;;6.83;4.43;;;30.60;82.40;;;;;;5090570;28;20523;-65
2023/08/24 11:48:04;;;;;;;4.53;4.10;;;30.70;80.00;;;;;;5089100;28;20460;-66
2023/08/24 11:50:31;;;;;;;7.00;5.10;;;30.60;78.10;;;;;;5090050;28;20453;-66
2023/08/24 11:52:59;;;;;;;5.37;4.87;;;30.60;76.10;;;;;;5090159;28;20804;-66
2023/08/24 11:55:26;;;;;;;4.43;4.10;;;30.60;76.40;;;;;;5090154;28;20522;-65
2023/08/24 11:57:55;;;;;;;4.70;4.30;;;30.60;77.30;;;;;;5089560;28;20489;-65
2023/08/24 12:00:22;;;;;;;4.50;4.10;;;30.50;77.00;;;;;;5089829;28;20453;-65
2023/08/24 12:02:50;;;;;;;5.37;4.90;;;30.60;76.70;;;;;;5082107;28;20579;-65
2023/08/24 12:05:24;;;;;;;6.00;4.30;;;30.70;78.30;;;;;;5089146;28;20525;-65
2023/08/24 12:07:53;;;;;;;10.77;4.90;;;30.80;78.10;;;;;;5088386;28;20469;-66
2023/08/24 12:10:21;;;;;;;4.30;4.00;;;30.90;78.50;;;;;;5089316;28;20836;-65
2023/08/24 12:12:48;;;;;;;5.27;4.97;;;31.20;76.90;;;;;;5089390;28;20902;-65
2023/08/24 12:15:20;;;;;;;7.30;4.53;;;31.30;73.30;;;;;;5089590;28;20947;-66
2023/08/24 12:17:48;;;;;;;5.50;4.67;;;31.50;74.10;;;;;;5088677;28;20488;-65
2023/08/24 12:20:22;;;;;;;4.70;4.30;;;31.60;72.90;;;;;;5089903;28;20452;-66
2023/08/24 12:22:53;;;;;;;4.20;4.00;;;31.70;73.60;;;;;;5089527;28;20464;-65
2023/08/24 12:25:23;;;;;;;4.20;3.80;;;31.90;75.50;;;;;;5089212;28;21040;-65
2023/08/24 12:27:51;;;;;;;4.57;4.17;;;32.00;73.80;;;;;;5089478;28;20433;-65
2023/08/24 12:30:19;;;;;;;5.20;3.83;;;32.10;70.70;;;;;;5101638;28;20528;-66
2023/08/24 12:32:50;;;;;;;5.10;4.60;;;32.30;73.40;;;;;;5089377;28;20540;-66
2023/08/24 12:35:17;;;;;;;6.00;4.70;;;32.50;68.90;;;;;;5089092;28;20446;-66
2023/08/24 12:37:44;;;;;;;4.33;3.87;;;32.70;70.80;;;;;;5087637;28;20490;-66
2023/08/24 12:40:11;;;;;;;4.27;3.87;;;32.90;70.20;;;;;;5088852;28;20825;-66
2023/08/24 12:42:38;;;;;;;4.73;4.33;;;33.00;68.70;;;;;;5087442;28;20841;-66
2023/08/24 12:45:07;;;;;;;3.83;3.63;;;33.20;69.30;;;;;;5088701;28;20446;-67
2023/08/24 12:47:37;;;;;;;4.40;4.10;;;33.30;67.90;;;;;;5086904;28;20455;-66
2023/08/24 12:50:07;;;;;;;4.43;4.13;;;33.50;68.80;;;;;;5089106;28;20447;-66